Time;durP1;ratioP1;P1;durP2;ratioP2;P2;SDS_P1;SDS_P2;PMS_P1;PMS_P2;Temp;Humidity;BMP_temperature;BMP_pressure;BME280_temperature;BME280_humidity;BME280_pressure;Samples;Min_cycle;Max_cycle;Signal;HPM_P1;HPM_P2
2023/10/01 00:01:15;;;;;;;;;;;;;;;;;;5031314;28;19986;-65
2023/10/01 00:03:41;;;;;;;;;;;;;;;;;;5031339;28;20029;-66
2023/10/01 00:06:07;;;;;;;;;;;;;;;;;;5031269;28;20580;-66
2023/10/01 00:08:34;;;;;;;;;;;;;;;;;;5031179;28;19989;-66
2023/10/01 00:11:00;;;;;;;;;;;;;;;;;;5031239;28;19986;-66
2023/10/01 00:13:26;;;;;;;;;;;;;;;;;;5031251;28;19986;-65
2023/10/01 00:15:54;;;;;;;;;;;;;;;;;;5030913;28;19982;-65
2023/10/01 00:18:20;;;;;;;;;;;;;;;;;;5031343;28;20044;-66
2023/10/01 00:20:46;;;;;;;;;;;;;;;;;;5031377;28;19986;-65
2023/10/01 00:23:12;;;;;;;;;;;;;;;;;;5031125;28;20010;-66
2023/10/01 00:25:41;;;;;;;;;;;;;;;;;;5031248;28;20459;-67
2023/10/01 00:28:08;;;;;;;;;;;;;;;;;;5029913;28;20112;-66
2023/10/01 00:30:34;;;;;;;;;;;;;;;;;;5031180;28;20032;-66
2023/10/01 00:33:00;;;;;;;;;;;;;;;;;;5030997;28;20005;-65
2023/10/01 00:35:26;;;;;;;;;;;;;;;;;;5030920;28;20462;-66
2023/10/01 00:37:51;;;;;;;;;;;;;;;;;;5030869;28;19986;-66
2023/10/01 00:40:18;;;;;;;;;;;;;;;;;;5030889;28;20005;-65
2023/10/01 00:42:44;;;;;;;;;;;;;;;;;;5031942;28;19993;-66
2023/10/01 00:45:16;;;;;;;;;;;;;;;;;;5034050;28;20018;-65
2023/10/01 00:47:42;;;;;;;;;;;;;;;;;;5034478;28;20519;-66
2023/10/01 00:50:08;;;;;;;;;;;;;;;;;;5034279;28;20076;-65
2023/10/01 00:52:34;;;;;;;;;;;;;;;;;;5034363;28;19986;-65
2023/10/01 00:55:01;;;;;;;;;;;;;;;;;;5034115;28;19986;-65
2023/10/01 00:57:27;;;;;;;;;;;;;;;;;;5034140;28;20593;-66
2023/10/01 00:59:53;;;;;;;;;;;;;;;;;;5034083;28;20131;-65
2023/10/01 01:02:19;;;;;;;;;;;;;;;;;;5034179;28;20021;-66
2023/10/01 01:05:05;;;;;;;;;;;;;;;;;;5034195;28;20100;-66
2023/10/01 01:07:32;;;;;;;;;;;;;;;;;;5033665;28;20135;-64
2023/10/01 01:10:00;;;;;;;;;;;;;;;;;;5032784;28;20470;-65
2023/10/01 01:12:27;;;;;;;;;;;;;;;;;;5034275;28;20044;-66
2023/10/01 01:14:54;;;;;;;;;;;;;;;;;;5033807;28;19986;-65
2023/10/01 01:17:21;;;;;;;;;;;;;;;;;;5033890;28;20560;-65
2023/10/01 01:19:47;;;;;;;;;;;;;;;;;;5033878;28;19994;-65
2023/10/01 01:22:23;;;;;;;;;;;;;;;;;;5033780;28;19986;-64
2023/10/01 01:24:50;;;;;;;;;;;;;;;;;;5033642;28;20021;-66
2023/10/01 01:27:16;;;;;;;;;;;;;;;;;;5032438;28;20414;-66
2023/10/01 01:29:44;;;;;;;;;;;;;;;;;;5033522;28;20508;-65
2023/10/01 01:32:13;;;;;;;;;;;;;;;;;;5033619;28;19982;-65
2023/10/01 01:34:40;;;;;;;;;;;;;;;;;;5033592;28;20048;-65
2023/10/01 01:37:06;;;;;;;;;;;;;;;;;;5033432;28;20506;-66
2023/10/01 01:39:35;;;;;;;;;;;;;;;;;;5033420;28;19994;-65
2023/10/01 01:42:02;;;;;;;;;;;;;;;;;;5033444;28;19986;-65
2023/10/01 01:44:30;;;;;;;;;;;;;;;;;;5033244;28;20077;-65
2023/10/01 01:47:00;;;;;;;;;;;;;;;;;;5033319;28;20047;-66
2023/10/01 01:49:26;;;;;;;;;;;;;;;;;;5033309;28;20073;-65
2023/10/01 01:51:59;;;;;;;;;;;;;;;;;;5031931;28;20063;-66
2023/10/01 01:54:26;;;;;;;;;;;;;;;;;;5032082;28;20036;-65
2023/10/01 01:56:52;;;;;;;;;;;;;;;;;;5033330;28;19994;-66
2023/10/01 01:59:21;;;;;;;;;;;;;;;;;;5033293;28;19990;-65
2023/10/01 02:01:47;;;;;;;;;;;;;;;;;;5032972;28;20410;-66
2023/10/01 02:04:13;;;;;;;;;;;;;;;;;;5032747;28;20050;-65
2023/10/01 02:06:40;;;;;;;;;;;;;;;;;;5032700;28;20006;-66
2023/10/01 02:09:12;;;;;;;;;;;;;;;;;;5031549;28;19993;-66
2023/10/01 02:11:38;;;;;;;;;;;;;;;;;;5033157;28;19993;-65
2023/10/01 02:14:05;;;;;;;;;;;;;;;;;;5032707;28;19986;-66
2023/10/01 02:16:35;;;;;;;;;;;;;;;;;;5032676;28;20078;-65
2023/10/01 02:19:21;;;;;;;;;;;;;;;;;;5032622;28;19990;-65
2023/10/01 02:21:52;;;;;;;;;;;;;;;;;;5032679;28;20447;-65
2023/10/01 02:24:37;;;;;;;;;;;;;;;;;;5032444;28;20482;-65
2023/10/01 02:27:04;;;;;;;;;;;;;;;;;;5032450;28;20005;-66
2023/10/01 02:29:32;;;;;;;;;;;;;;;;;;5032748;28;19996;-66
2023/10/01 02:31:58;;;;;;;;;;;;;;;;;;5032588;28;20040;-65
2023/10/01 02:34:24;;;;;;;;;;;;;;;;;;5032469;28;20363;-66
2023/10/01 02:36:50;;;;;;;;;;;;;;;;;;5032417;28;20394;-68
2023/10/01 02:39:49;;;;;;;;;;;;;;;;;;5032367;28;20048;-66
2023/10/01 02:44:34;;;;;;;;;;;;;;;;;;5032258;28;20018;-65
2023/10/01 02:47:09;;;;;;;;;;;;;;;;;;5032352;28;19982;-65
2023/10/01 02:49:35;;;;;;;;;;;;;;;;;;5032276;28;20028;-65
2023/10/01 02:52:03;;;;;;;;;;;;;;;;;;5032178;28;20009;-65
2023/10/01 02:54:29;;;;;;;;;;;;;;;;;;5032342;28;20109;-66
2023/10/01 02:57:23;;;;;;;;;;;;;;;;;;5031983;28;20457;-65
2023/10/01 03:02:38;;;;;;;;;;;;;;;;;;5031924;28;20081;-66
2023/10/01 03:05:14;;;;;;;;;;;;;;;;;;5031535;28;20068;-65
2023/10/01 03:07:40;;;;;;;;;;;;;;;;;;5031759;28;20328;-66
2023/10/01 03:10:12;;;;;;;;;;;;;;;;;;5031812;28;19988;-65
2023/10/01 03:12:40;;;;;;;;;;;;;;;;;;5031755;28;19993;-65
2023/10/01 03:17:56;;;;;;;;;;;;;;;;;;5032061;28;19993;-65
2023/10/01 03:23:03;;;;;;;;;;;;;;;;;;5031655;28;19982;-66
2023/10/01 03:25:30;;;;;;;;;;;;;;;;;;5031675;28;20450;-66
2023/10/01 03:27:58;;;;;;;;;;;;;;;;;;5030279;28;20417;-65
2023/10/01 03:30:31;;;;;;;;;;;;;;;;;;5031697;28;20005;-65
2023/10/01 03:33:00;;;;;;;;;;;;;;;;;;5031620;28;20548;-66
2023/10/01 03:35:27;;;;;;;;;;;;;;;;;;5031342;28;20431;-65
2023/10/01 03:38:09;;;;;;;;;;;;;;;;;;5031496;28;20081;-66
2023/10/01 03:43:24;;;;;;;;;;;;;;;;;;5031369;28;20009;-65
2023/10/01 03:45:55;;;;;;;;;;;;;;;;;;5031287;28;20018;-65
2023/10/01 03:48:21;;;;;;;;;;;;;;;;;;5029888;28;20018;-65
2023/10/01 03:50:47;;;;;;;;;;;;;;;;;;5031620;28;20075;-66
2023/10/01 03:53:13;;;;;;;;;;;;;;;;;;5031234;28;19986;-66
2023/10/01 03:55:40;;;;;;;;;;;;;;;;;;5031251;28;20073;-65
2023/10/01 03:58:08;;;;;;;;;;;;;;;;;;5031213;28;19994;-65
2023/10/01 04:03:06;;;;;;;;;;;;;;;;;;5031159;28;19982;-66
2023/10/01 04:05:33;;;;;;;;;;;;;;;;;;5031282;28;20025;-66
2023/10/01 04:08:04;;;;;;;;;;;;;;;;;;5030995;28;19986;-66
2023/10/01 04:10:34;;;;;;;;;;;;;;;;;;5031480;28;20490;-66
2023/10/01 04:13:12;;;;;;;;;;;;;;;;;;5031233;28;20029;-66
2023/10/01 04:15:41;;;;;;;;;;;;;;;;;;5030980;28;19992;-66
2023/10/01 04:20:48;;;;;;;;;;;;;;;;;;5035127;28;19989;-66
2023/10/01 04:23:21;;;;;;;;;;;;;;;;;;5034962;28;20040;-66
2023/10/01 04:25:51;;;;;;;;;;;;;;;;;;5034821;28;20025;-66
2023/10/01 04:28:18;;;;;;;;;;;;;;;;;;5035089;28;19986;-66
2023/10/01 04:30:45;;;;;;;;;;;;;;;;;;5034649;28;20025;-66
2023/10/01 04:33:17;;;;;;;;;;;;;;;;;;5034870;28;19986;-65
2023/10/01 04:35:51;;;;;;;;;;;;;;;;;;5034571;28;19982;-64
2023/10/01 04:38:18;;;;;;;;;;;;;;;;;;5033000;28;19986;-65
2023/10/01 04:40:46;;;;;;;;;;;;;;;;;;5034706;28;19990;-65
2023/10/01 04:43:16;;;;;;;;;;;;;;;;;;5034345;28;20029;-65
2023/10/01 04:45:44;;;;;;;;;;;;;;;;;;5033096;28;20049;-66
2023/10/01 04:48:16;;;;;;;;;;;;;;;;;;5034391;28;20085;-66
2023/10/01 04:50:42;;;;;;;;;;;;;;;;;;5034644;28;20084;-66
2023/10/01 04:53:09;;;;;;;;;;;;;;;;;;5034155;28;19994;-65
2023/10/01 04:55:41;;;;;;;;;;;;;;;;;;5034343;28;20488;-65
2023/10/01 04:58:07;;;;;;;;;;;;;;;;;;5034419;28;19986;-66
2023/10/01 05:00:34;;;;;;;;;;;;;;;;;;5034248;28;19994;-66
2023/10/01 05:03:03;;;;;;;;;;;;;;;;;;5034185;28;19993;-65
2023/10/01 05:05:29;;;;;;;;;;;;;;;;;;5032715;28;20042;-65
2023/10/01 05:07:55;;;;;;;;;;;;;;;;;;5034179;28;19990;-66
2023/10/01 05:10:21;;;;;;;;;;;;;;;;;;5034053;28;20334;-66
2023/10/01 05:12:54;;;;;;;;;;;;;;;;;;5033997;28;19986;-66
2023/10/01 05:15:34;;;;;;;;;;;;;;;;;;5033921;28;20625;-65
2023/10/01 05:18:01;;;;;;;;;;;;;;;;;;5033931;28;19986;-66
2023/10/01 05:20:27;;;;;;;;;;;;;;;;;;5034031;28;19994;-66
2023/10/01 05:22:54;;;;;;;;;;;;;;;;;;5033559;28;20366;-66
2023/10/01 05:25:20;;;;;;;;;;;;;;;;;;5033760;28;20017;-66
2023/10/01 05:27:52;;;;;;;;;;;;;;;;;;5033650;28;19982;-66
2023/10/01 05:30:39;;;;;;;;;;;;;;;;;;5033716;28;19986;-65
2023/10/01 05:33:06;;;;;;;;;;;;;;;;;;5033733;28;20161;-65
2023/10/01 05:35:33;;;;;;;;;;;;;;;;;;5036722;28;19989;-67
2023/10/01 05:38:04;;;;;;;;;;;;;;;;;;5045060;28;19990;-65
2023/10/01 05:40:31;;;;;;;;;;;;;;;;;;5052068;28;19985;-66
2023/10/01 05:43:12;;;;;;;;;;;;;;;;;;5033999;28;20083;-66
2023/10/01 05:45:39;;;;;;;;;;;;;;;;;;5033591;28;20017;-64
2023/10/01 05:48:10;;;;;;;;;;;;;;;;;;5052994;28;20080;-65
2023/10/01 05:50:36;;;;;;;;;;;;;;;;;;5042390;28;19985;-66
2023/10/01 05:53:02;;;;;;;;;;;;;;;;;;5033151;28;20489;-66
2023/10/01 05:55:28;;;;;;;;;;;;;;;;;;5033065;28;19982;-66
2023/10/01 05:58:12;;;;;;;;;;;;;;;;;;5032516;28;19986;-65
2023/10/01 06:00:44;;;;;;;;;;;;;;;;;;5032858;28;20088;-66
2023/10/01 06:03:10;;;;;;;;;;;;;;;;;;5035163;28;20028;-66
2023/10/01 06:05:43;;;;;;;;;;;;;;;;;;5052867;28;20419;-66
2023/10/01 06:08:24;;;;;;;;;;;;;;;;;;5053052;28;19985;-67
2023/10/01 06:11:04;;;;;;;;;;;;;;;;;;5041893;28;19990;-67
2023/10/01 06:13:30;;;;;;;;;;;;;;;;;;5043226;28;19997;-66
2023/10/01 06:15:56;;;;;;;;;;;;;;;;;;5049582;28;19986;-67
2023/10/01 06:18:22;;;;;;;;;;;;;;;;;;5041611;28;19996;-66
2023/10/01 06:20:50;;;;;;;;;;;;;;;;;;5043145;28;20435;-65
2023/10/01 06:23:16;;;;;;;;;;;;;;;;;;5041549;28;20044;-65
2023/10/01 06:25:44;;;;;;;;;;;;;;;;;;5037031;28;20450;-63
2023/10/01 06:28:10;;;;;;;;;;;;;;;;;;5051224;28;20004;-64
2023/10/01 06:30:39;;;;;;;;;;;;;;;;;;5050678;28;20085;-65
2023/10/01 06:33:05;;;;;;;;;;;;;;;;;;5050684;28;19989;-63
2023/10/01 06:35:33;;;;;;;;;;;;;;;;;;5052302;28;20404;-64
2023/10/01 06:37:59;;;;;;;;;;;;;;;;;;5032987;28;19990;-64
2023/10/01 06:40:31;;;;;;;;;;;;;;;;;;5031578;28;19986;-66
2023/10/01 06:43:00;;;;;;;;;;;;;;;;;;5032173;28;20019;-64
2023/10/01 06:45:38;;;;;;;;;;;;;;;;;;5034694;28;20063;-65
2023/10/01 06:48:08;;;;;;;;;;;;;;;;;;5049455;28;20015;-66
2023/10/01 06:50:35;;;;;;;;;;;;;;;;;;5050510;28;20004;-68
2023/10/01 06:53:03;;;;;;;;;;;;;;;;;;5050194;28;20001;-67
2023/10/01 06:55:30;;;;;;;;;;;;;;;;;;5050143;28;19986;-68
2023/10/01 06:58:00;;;;;;;;;;;;;;;;;;5050037;28;20512;-68
2023/10/01 07:00:30;;;;;;;;;;;;;;;;;;5049482;28;20466;-68
2023/10/01 07:03:13;;;;;;;;;;;;;;;;;;5049221;28;19986;-68
2023/10/01 07:05:39;;;;;;;;;;;;;;;;;;5051164;28;20013;-67
2023/10/01 07:08:05;;;;;;;;;;;;;;;;;;5051621;28;20343;-67
2023/10/01 07:10:31;;;;;;;;;;;;;;;;;;5046611;28;19990;-68
2023/10/01 07:13:15;;;;;;;;;;;;;;;;;;5042436;28;20008;-67
2023/10/01 07:15:43;;;;;;;;;;;;;;;;;;5037174;28;20028;-67
2023/10/01 07:18:15;;;;;;;;;;;;;;;;;;5031285;28;20000;-67
2023/10/01 07:20:44;;;;;;;;;;;;;;;;;;5051605;28;20027;-67
2023/10/01 07:23:11;;;;;;;;;;;;;;;;;;5051354;28;19993;-69
2023/10/01 07:25:43;;;;;;;;;;;;;;;;;;5031709;28;19998;-67
2023/10/01 07:28:12;;;;;;;;;;;;;;;;;;5047290;28;20021;-68
2023/10/01 07:30:45;;;;;;;;;;;;;;;;;;5051385;28;20450;-68
2023/10/01 07:33:13;;;;;;;;;;;;;;;;;;5050495;28;20033;-67
2023/10/01 07:35:40;;;;;;;;;;;;;;;;;;5048941;28;19997;-67
2023/10/01 07:38:06;;;;;;;;;;;;;;;;;;5050716;28;19982;-66
2023/10/01 07:40:52;;;;;;;;;;;;;;;;;;5042586;28;20028;-67
2023/10/01 07:43:18;;;;;;;;;;;;;;;;;;5038891;28;19982;-66
2023/10/01 07:45:55;;;;;;;;;;;;;;;;;;5041724;28;20015;-67
2023/10/01 07:48:22;;;;;;;;;;;;;;;;;;5039726;28;20316;-68
2023/10/01 07:50:49;;;;;;;;;;;;;;;;;;5042031;28;20355;-67
2023/10/01 07:53:14;;;;;;;;;;;;;;;;;;5042416;28;20069;-67
2023/10/01 07:55:41;;;;;;;;;;;;;;;;;;5054482;28;20080;-66
2023/10/01 07:58:44;;;;;;;;;;;;;;;;;;5054374;28;19986;-67
2023/10/01 08:03:55;;;;;;;;;;;;;;;;;;5055008;28;20014;-67
2023/10/01 08:06:29;;;;;;;;;;;;;;;;;;5054899;28;20002;-67
2023/10/01 08:08:57;;;;;;;;;;;;;;;;;;5054870;28;19993;-68
2023/10/01 08:14:08;;;;;;;;;;;;;;;;;;5054863;28;20016;-68
2023/10/01 08:16:47;;;;;;;;;;;;;;;;;;5054820;28;19982;-68
2023/10/01 08:19:13;;;;;;;;;;;;;;;;;;5054653;28;20009;-68
2023/10/01 08:21:48;;;;;;;;;;;;;;;;;;5054926;28;20060;-67
2023/10/01 08:24:18;;;;;;;;;;;;;;;;;;5054470;28;20052;-67
2023/10/01 08:26:44;;;;;;;;;;;;;;;;;;5054745;28;19989;-67
2023/10/01 08:29:14;;;;;;;;;;;;;;;;;;5054625;28;20036;-68
2023/10/01 08:34:27;;;;;;;;;;;;;;;;;;5054584;28;19982;-67
2023/10/01 08:36:56;;;;;;;;;;;;;;;;;;5054669;28;19986;-67
2023/10/01 08:39:33;;;;;;;;;;;;;;;;;;5054408;28;20028;-69
2023/10/01 08:41:59;;;;;;;;;;;;;;;;;;5052861;28;19985;-66
2023/10/01 08:44:33;;;;;;;;;;;;;;;;;;5053149;28;20508;-68
2023/10/01 08:47:00;;;;;;;;;;;;;;;;;;5051294;28;19996;-66
2023/10/01 08:49:31;;;;;;;;;;;;;;;;;;5050082;28;19993;-66
2023/10/01 08:52:18;;;;;;;;;;;;;;;;;;5051379;28;19982;-65
2023/10/01 08:54:43;;;;;;;;;;;;;;;;;;5051114;28;20067;-65
2023/10/01 08:57:17;;;;;;;;;;;;;;;;;;5051481;28;20036;-66
2023/10/01 08:59:43;;;;;;;;;;;;;;;;;;5051355;28;20346;-64
2023/10/01 09:02:15;;;;;;;;;;;;;;;;;;5052421;28;19986;-65
2023/10/01 09:04:48;;;;;;;;;;;;;;;;;;5055017;28;20009;-65
2023/10/01 09:07:20;;;;;;;;;;;;;;;;;;5072450;28;20034;-64
2023/10/01 09:09:52;;;;;;;;;;;;;;;;;;5072865;28;20075;-65
2023/10/01 09:12:18;;;;;;;;;;;;;;;;;;5072807;28;19982;-65
2023/10/01 09:14:46;;;;;;;;;;;;;;;;;;5072770;28;20009;-65
2023/10/01 09:17:12;;;;;;;;;;;;;;;;;;5072721;28;20072;-66
2023/10/01 09:19:42;;;;;;;;;;;;;;;;;;5072501;28;20059;-65
2023/10/01 09:22:08;;;;;;;;;;;;;;;;;;5072570;28;19989;-65
2023/10/01 09:24:42;;;;;;;;;;;;;;;;;;5072655;28;20049;-65
2023/10/01 09:27:21;;;;;;;;;;;;;;;;;;5072459;28;19982;-65
2023/10/01 09:29:48;;;;;;;;;;;;;;;;;;5072660;28;19993;-67
2023/10/01 09:32:14;;;;;;;;;;;;;;;;;;5072462;28;19985;-66
2023/10/01 09:34:59;;;;;;;;;;;;;;;;;;5072336;28;19985;-67
2023/10/01 09:37:33;;;;;;;;;;;;;;;;;;5072345;28;19985;-66
2023/10/01 09:40:04;;;;;;;;;;;;;;;;;;5072427;28;19987;-67
2023/10/01 09:42:31;;;;;;;;;;;;;;;;;;5072515;28;19985;-66
2023/10/01 09:45:09;;;;;;;;;;;;;;;;;;5005798;28;1896782;-66
2023/10/01 09:47:35;;;;;;;;;;;;;;;;;;5073324;28;20055;-67
2023/10/01 09:50:03;;;;;;;;;;;;;;;;;;5066289;28;20031;-64
2023/10/01 09:52:48;;;;;;;;;;;;;;;;;;5053328;28;20465;-66
2023/10/01 09:55:26;;;;;;;;;;;;;;;;;;5053214;28;20431;-67
2023/10/01 09:57:52;;;;;;;;;;;;;;;;;;5052435;28;20052;-65
2023/10/01 10:00:20;;;;;;;;;;;;;;;;;;5033166;28;20085;-66
2023/10/01 10:02:53;;;;;;;;;;;;;;;;;;5035467;28;19994;-64
2023/10/01 10:05:24;;;;;;;;;;;;;;;;;;5049511;28;20385;-65
2023/10/01 10:07:50;;;;;;;;;;;;;;;;;;5051154;28;20004;-66
2023/10/01 10:10:24;;;;;;;;;;;;;;;;;;5044598;28;19985;-66
2023/10/01 10:12:53;;;;;;;;;;;;;;;;;;5032126;28;20029;-65
2023/10/01 10:15:19;;;;;;;;;;;;;;;;;;5032155;28;20006;-66
2023/10/01 10:17:45;;;;;;;;;;;;;;;;;;5033231;28;19986;-65
2023/10/01 10:20:26;;;;;;;;;;;;;;;;;;5052472;28;19982;-66
2023/10/01 10:22:52;;;;;;;;;;;;;;;;;;5052554;28;20084;-65
2023/10/01 10:25:18;;;;;;;;;;;;;;;;;;5052332;28;20100;-66
2023/10/01 10:27:44;;;;;;;;;;;;;;;;;;5044127;28;19985;-66
2023/10/01 10:30:14;;;;;;;;;;;;;;;;;;5032580;28;20002;-66
2023/10/01 10:32:44;;;;;;;;;;;;;;;;;;5032217;28;20068;-65
2023/10/01 10:35:19;;;;;;;;;;;;;;;;;;5032784;28;20342;-67
2023/10/01 10:37:45;;;;;;;;;;;;;;;;;;5032282;28;19992;-67
2023/10/01 10:42:46;;;;;;;;;;;;;;;;;;5052434;28;19986;-66
2023/10/01 10:45:57;;;;;;;;;;;;;;;;;;5051397;28;20029;-66
2023/10/01 10:47:58;;;;;;;;;;;;;;;;;;5051149;28;19989;-65
2023/10/01 10:50:24;;;;;;;;;;;;;;;;;;5051687;28;20365;-67
2023/10/01 10:52:50;;;;;;;;;;;;;;;;;;5051039;28;19989;-66
2023/10/01 10:55:16;;;;;;;;;;;;;;;;;;5052262;28;19993;-65
2023/10/01 10:57:48;;;;;;;;;;;;;;;;;;5051709;28;20030;-66
2023/10/01 11:00:23;;;;;;;;;;;;;;;;;;5051920;28;19993;-66
2023/10/01 11:02:55;;;;;;;;;;;;;;;;;;5050793;28;19993;-66
2023/10/01 11:05:21;;;;;;;;;;;;;;;;;;5036703;28;20021;-66
2023/10/01 11:07:47;;;;;;;;;;;;;;;;;;5039543;28;19986;-66
2023/10/01 11:10:14;;;;;;;;;;;;;;;;;;5042104;28;19986;-66
2023/10/01 11:12:40;;;;;;;;;;;;;;;;;;5040386;28;19989;-66
2023/10/01 11:15:23;;;;;;;;;;;;;;;;;;5040190;28;19982;-66
2023/10/01 11:17:49;;;;;;;;;;;;;;;;;;5041229;28;19993;-66
2023/10/01 11:20:25;;;;;;;;;;;;;;;;;;5040571;28;19986;-66
2023/10/01 11:22:54;;;;;;;;;;;;;;;;;;5039067;28;19986;-66
2023/10/01 11:25:20;;;;;;;;;;;;;;;;;;5040143;28;20104;-65
2023/10/01 11:27:48;;;;;;;;;;;;;;;;;;5039379;28;20554;-66
2023/10/01 11:30:19;;;;;;;;;;;;;;;;;;5040831;28;19981;-65
2023/10/01 11:32:57;;;;;;;;;;;;;;;;;;5030568;28;20494;-67
2023/10/01 11:35:31;;;;;;;;;;;;;;;;;;5039939;28;19992;-65
2023/10/01 11:37:57;;;;;;;;;;;;;;;;;;5030090;28;20462;-68
2023/10/01 11:40:46;;;;;;;;;;;;;;;;;;5043531;28;20055;-67
2023/10/01 11:43:09;;;;;;;;;;;;;;;;;;5051176;28;19985;-67
2023/10/01 11:45:35;;;;;;;;;;;;;;;;;;5049797;28;20021;-65
2023/10/01 11:48:19;;;;;;;;;;;;;;;;;;5032621;28;19998;-66
2023/10/01 11:50:51;;;;;;;;;;;;;;;;;;5030644;28;19989;-65
2023/10/01 11:53:28;;;;;;;;;;;;;;;;;;5034287;28;19985;-65
2023/10/01 11:55:58;;;;;;;;;;;;;;;;;;5041915;28;19995;-66
2023/10/01 11:58:26;;;;;;;;;;;;;;;;;;5041862;28;19986;-67
2023/10/01 12:00:59;;;;;;;;;;;;;;;;;;5040895;28;19982;-64
2023/10/01 12:03:25;;;;;;;;;;;;;;;;;;5045642;28;19986;-66
2023/10/01 12:05:56;;;;;;;;;;;;;;;;;;5031410;28;20010;-66
2023/10/01 12:08:34;;;;;;;;;;;;;;;;;;5031467;28;19997;-67
2023/10/01 12:11:26;;;;;;;;;;;;;;;;;;5030964;28;19982;-66
2023/10/01 12:14:04;;;;;;;;;;;;;;;;;;5039624;28;19990;-66
2023/10/01 12:16:30;;;;;;;;;;;;;;;;;;5039534;28;19986;-66
2023/10/01 12:19:17;;;;;;;;;;;;;;;;;;5030911;28;19993;-67
2023/10/01 12:21:41;;;;;;;;;;;;;;;;;;5030979;28;19990;-67
2023/10/01 12:24:12;;;;;;;;;;;;;;;;;;5039334;28;20001;-67
2023/10/01 12:26:38;;;;;;;;;;;;;;;;;;5050847;28;19989;-68
2023/10/01 12:29:12;;;;;;;;;;;;;;;;;;5036208;28;19983;-67
2023/10/01 12:31:40;;;;;;;;;;;;;;;;;;5031289;28;19986;-66
2023/10/01 12:34:06;;;;;;;;;;;;;;;;;;5031075;28;19994;-68
2023/10/01 12:36:33;;;;;;;;;;;;;;;;;;5036156;28;19985;-67
2023/10/01 12:46:54;;;;;;;;;;;;;;;;;;5042579;28;20008;-66
2023/10/01 12:49:20;;;;;;;;;;;;;;;;;;5043013;28;19982;-67
2023/10/01 12:51:53;;;;;;;;;;;;;;;;;;5043753;28;20461;-66
2023/10/01 12:54:19;;;;;;;;;;;;;;;;;;5038629;28;20004;-67
2023/10/01 12:56:48;;;;;;;;;;;;;;;;;;5054106;28;20112;-66
2023/10/01 12:59:20;;;;;;;;;;;;;;;;;;5053994;28;20004;-66
2023/10/01 13:01:52;;;;;;;;;;;;;;;;;;5042393;28;20012;-67
2023/10/01 13:04:25;;;;;;;;;;;;;;;;;;5033911;28;20006;-66
2023/10/01 13:06:51;;;;;;;;;;;;;;;;;;5034184;28;19986;-66
2023/10/01 13:12:14;;;;;;;;;;;;;;;;;;5038437;28;19992;-67
2023/10/01 13:14:40;;;;;;;;;;;;;;;;;;5050494;28;19985;-67
2023/10/01 13:17:19;;;;;;;;;;;;;;;;;;5034035;28;19986;-68
2023/10/01 13:19:47;;;;;;;;;;;;;;;;;;5034948;28;19996;-68
2023/10/01 13:22:13;;;;;;;;;;;;;;;;;;5034126;28;19989;-67
2023/10/01 13:24:39;;;;;;;;;;;;;;;;;;5033925;28;20406;-68
2023/10/01 13:27:13;;;;;;;;;;;;;;;;;;5034021;28;19986;-67
2023/10/01 13:29:38;;;;;;;;;;;;;;;;;;5035010;28;20019;-67
2023/10/01 13:32:15;;;;;;;;;;;;;;;;;;5031483;28;19994;-68
2023/10/01 13:34:54;;;;;;;;;;;;;;;;;;5031540;28;20489;-67
2023/10/01 13:37:42;;;;;;;;;;;;;;;;;;5029974;28;19990;-67
2023/10/01 13:40:29;;;;;;;;;;;;;;;;;;5031034;28;19983;-66
2023/10/01 14:10:21;;;;;;;;;;;;;;;;;;5053061;28;20369;-67
2023/10/01 14:12:56;;;;;;;;;;;;;;;;;;5052681;28;19989;-67
2023/10/01 14:15:23;;;;;;;;;;;;;;;;;;5053030;28;19985;-67
2023/10/01 14:17:55;;;;;;;;;;;;;;;;;;5049512;28;20000;-66
2023/10/01 14:20:37;;;;;;;;;;;;;;;;;;5040104;28;20462;-67
2023/10/01 14:23:04;;;;;;;;;;;;;;;;;;5052497;28;19985;-68
2023/10/01 14:25:30;;;;;;;;;;;;;;;;;;5033027;28;20014;-67
2023/10/01 14:27:59;;;;;;;;;;;;;;;;;;5047347;28;20472;-67
2023/10/01 14:30:25;;;;;;;;;;;;;;;;;;5051638;28;20190;-67
2023/10/01 14:32:51;;;;;;;;;;;;;;;;;;5050435;28;20355;-67
2023/10/01 14:35:17;;;;;;;;;;;;;;;;;;5052244;28;20029;-67
2023/10/01 14:37:55;;;;;;;;;;;;;;;;;;5051452;28;20044;-67
2023/10/01 14:40:21;;;;;;;;;;;;;;;;;;5052212;28;19991;-67
2023/10/01 14:42:47;;;;;;;;;;;;;;;;;;5050068;28;20092;-67
2023/10/01 14:45:13;;;;;;;;;;;;;;;;;;5051967;28;20022;-67
2023/10/01 14:47:42;;;;;;;;;;;;;;;;;;5050618;28;19997;-67
2023/10/01 14:50:08;;;;;;;;;;;;;;;;;;5039666;28;19997;-67
2023/10/01 14:52:40;;;;;;;;;;;;;;;;;;5032204;28;20065;-67
2023/10/01 14:55:06;;;;;;;;;;;;;;;;;;5032032;28;19986;-68
2023/10/01 14:57:34;;;;;;;;;;;;;;;;;;5031967;28;20510;-67
2023/10/01 15:00:02;;;;;;;;;;;;;;;;;;5031863;28;19982;-67
2023/10/01 15:02:28;;;;;;;;;;;;;;;;;;5037350;28;19986;-68
2023/10/01 15:04:54;;;;;;;;;;;;;;;;;;5049799;28;20056;-67
2023/10/01 15:07:21;;;;;;;;;;;;;;;;;;5049495;28;20794;-67
2023/10/01 15:09:49;;;;;;;;;;;;;;;;;;5051805;28;19989;-68
2023/10/01 15:12:26;;;;;;;;;;;;;;;;;;5049844;28;19997;-67
2023/10/01 15:14:53;;;;;;;;;;;;;;;;;;5042384;28;20088;-66
2023/10/01 15:17:19;;;;;;;;;;;;;;;;;;5041774;28;19986;-67
2023/10/01 15:19:52;;;;;;;;;;;;;;;;;;5048594;28;19989;-66
2023/10/01 15:22:18;;;;;;;;;;;;;;;;;;5060361;28;19985;-67
2023/10/01 15:24:45;;;;;;;;;;;;;;;;;;5055501;28;20020;-66
2023/10/01 15:27:12;;;;;;;;;;;;;;;;;;5031554;28;20073;-68
2023/10/01 15:29:38;;;;;;;;;;;;;;;;;;5057355;28;20016;-68
2023/10/01 15:32:14;;;;;;;;;;;;;;;;;;5048291;28;20439;-66
2023/10/01 15:34:40;;;;;;;;;;;;;;;;;;5040629;28;20009;-67
2023/10/01 15:37:11;;;;;;;;;;;;;;;;;;5031266;28;19989;-68
2023/10/01 15:39:37;;;;;;;;;;;;;;;;;;5033966;28;19986;-67
2023/10/01 15:42:12;;;;;;;;;;;;;;;;;;5039030;28;19990;-67
2023/10/01 15:44:44;;;;;;;;;;;;;;;;;;5047345;28;20167;-65
2023/10/01 15:47:10;;;;;;;;;;;;;;;;;;5051070;28;19985;-66
2023/10/01 15:49:39;;;;;;;;;;;;;;;;;;5046722;28;19994;-65
2023/10/01 15:52:10;;;;;;;;;;;;;;;;;;5064791;28;20372;-67
2023/10/01 15:54:36;;;;;;;;;;;;;;;;;;5070679;28;19993;-66
2023/10/01 15:57:04;;;;;;;;;;;;;;;;;;5071094;28;20012;-67
2023/10/01 15:59:30;;;;;;;;;;;;;;;;;;5052953;28;20048;-67
2023/10/01 16:01:57;;;;;;;;;;;;;;;;;;5050691;28;20441;-67
2023/10/01 16:04:23;;;;;;;;;;;;;;;;;;5050972;28;20010;-67
2023/10/01 16:06:49;;;;;;;;;;;;;;;;;;5050261;28;20051;-67
2023/10/01 16:09:15;;;;;;;;;;;;;;;;;;5047437;28;20495;-68
2023/10/01 16:11:41;;;;;;;;;;;;;;;;;;5051029;28;20076;-67
2023/10/01 16:14:09;;;;;;;;;;;;;;;;;;5054048;28;20092;-66
2023/10/01 16:16:36;;;;;;;;;;;;;;;;;;5048153;28;20073;-66
2023/10/01 16:19:05;;;;;;;;;;;;;;;;;;5044836;28;19997;-67
2023/10/01 16:21:40;;;;;;;;;;;;;;;;;;5052485;28;19989;-67
2023/10/01 16:24:06;;;;;;;;;;;;;;;;;;5052722;28;20053;-68
2023/10/01 16:26:32;;;;;;;;;;;;;;;;;;5058544;28;20028;-67
2023/10/01 16:28:58;;;;;;;;;;;;;;;;;;5053685;28;20347;-68
2023/10/01 16:31:26;;;;;;;;;;;;;;;;;;5054566;28;19992;-68
2023/10/01 16:33:59;;;;;;;;;;;;;;;;;;5034449;28;19993;-68
2023/10/01 16:36:37;;;;;;;;;;;;;;;;;;5033646;28;20029;-68
2023/10/01 16:39:03;;;;;;;;;;;;;;;;;;5034883;28;20056;-69
2023/10/01 16:41:29;;;;;;;;;;;;;;;;;;5034599;28;20363;-69
2023/10/01 16:43:56;;;;;;;;;;;;;;;;;;5049682;28;20067;-69
2023/10/01 16:46:22;;;;;;;;;;;;;;;;;;5054546;28;20034;-68
2023/10/01 16:48:49;;;;;;;;;;;;;;;;;;5053689;28;19982;-66
2023/10/01 16:53:44;;;;;;;;;;;;;;;;;;5046874;28;19986;-73
2023/10/01 16:56:12;;;;;;;;;;;;;;;;;;5045221;28;19997;-73
2023/10/01 16:58:39;;;;;;;;;;;;;;;;;;5038018;28;19986;-71
2023/10/01 17:01:12;;;;;;;;;;;;;;;;;;5042463;28;20049;-65
2023/10/01 17:03:38;;;;;;;;;;;;;;;;;;5051794;28;19990;-68
2023/10/01 17:06:07;;;;;;;;;;;;;;;;;;5046916;28;20029;-69
2023/10/01 17:08:34;;;;;;;;;;;;;;;;;;5045016;28;19986;-68
2023/10/01 17:11:00;;;;;;;;;;;;;;;;;;5039957;28;19998;-68
2023/10/01 17:13:26;;;;;;;;;;;;;;;;;;5033139;28;20063;-68
2023/10/01 17:15:53;;;;;;;;;;;;;;;;;;5047158;28;20004;-69
2023/10/01 17:18:19;;;;;;;;;;;;;;;;;;5037792;28;19997;-67
2023/10/01 17:20:45;;;;;;;;;;;;;;;;;;5048926;28;20084;-68
2023/10/01 17:23:11;;;;;;;;;;;;;;;;;;5052433;28;19997;-70
2023/10/01 17:25:37;;;;;;;;;;;;;;;;;;5047391;28;20067;-68
2023/10/01 17:28:03;;;;;;;;;;;;;;;;;;5046999;28;20520;-68
2023/10/01 17:30:29;;;;;;;;;;;;;;;;;;5042364;28;20054;-68
2023/10/01 17:33:01;;;;;;;;;;;;;;;;;;5045433;28;19994;-68
2023/10/01 17:35:27;;;;;;;;;;;;;;;;;;5052377;28;20641;-67
2023/10/01 17:37:53;;;;;;;;;;;;;;;;;;5048312;28;20529;-68
2023/10/01 17:40:19;;;;;;;;;;;;;;;;;;5038703;28;19986;-69
2023/10/01 17:42:45;;;;;;;;;;;;;;;;;;5051089;28;19996;-68
2023/10/01 17:45:11;;;;;;;;;;;;;;;;;;5052449;28;20025;-68
2023/10/01 17:47:39;;;;;;;;;;;;;;;;;;5036595;28;19985;-67
2023/10/01 17:50:13;;;;;;;;;;;;;;;;;;5042256;28;19990;-67
2023/10/01 17:52:39;;;;;;;;;;;;;;;;;;5044300;28;19992;-67
2023/10/01 17:55:05;;;;;;;;;;;;;;;;;;5039281;28;19990;-67
2023/10/01 17:57:34;;;;;;;;;;;;;;;;;;5041896;28;19987;-67
2023/10/01 18:00:00;;;;;;;;;;;;;;;;;;5048833;28;19996;-68
2023/10/01 18:02:28;;;;;;;;;;;;;;;;;;5038544;28;20001;-68
2023/10/01 18:05:01;;;;;;;;;;;;;;;;;;5049367;28;20017;-68
2023/10/01 18:07:29;;;;;;;;;;;;;;;;;;5037906;28;19990;-68
2023/10/01 18:09:55;;;;;;;;;;;;;;;;;;5042429;28;20409;-67
2023/10/01 18:12:27;;;;;;;;;;;;;;;;;;5037667;28;20362;-68